Time;durP1;ratioP1;P1;durP2;ratioP2;P2;SDS_P1;SDS_P2;PMS_P1;PMS_P2;Temp;Humidity;BMP_temperature;BMP_pressure;BME280_temperature;BME280_humidity;BME280_pressure;Samples;Min_cycle;Max_cycle;Signal;HPM_P1;HPM_P2
2023/12/17 00:00:37;;;;;;;2.95;2.75;;;16.40;65.90;;;;;;4974413;28;20124;-82
2023/12/17 00:03:03;;;;;;;2.97;2.78;;;16.30;65.90;;;;;;4991000;28;20144;-84
2023/12/17 00:05:28;;;;;;;3.35;3.15;;;16.30;65.50;;;;;;4990790;28;20069;-83
2023/12/17 00:07:54;;;;;;;2.83;2.63;;;16.30;65.60;;;;;;5007727;28;20045;-82
2023/12/17 00:10:21;;;;;;;2.80;2.60;;;16.30;65.60;;;;;;5005939;28;20037;-82
2023/12/17 00:12:47;;;;;;;2.35;2.25;;;16.30;65.70;;;;;;5009041;28;20041;-82
2023/12/17 00:15:12;;;;;;;2.92;2.78;;;16.30;66.60;;;;;;4991733;28;20440;-84
2023/12/17 00:17:38;;;;;;;3.20;3.00;;;16.30;65.60;;;;;;5009590;28;20042;-83
2023/12/17 00:20:04;;;;;;;2.70;2.50;;;16.30;65.60;;;;;;4991283;28;20112;-83
2023/12/17 00:22:29;;;;;;;2.70;2.50;;;16.30;65.70;;;;;;4993048;28;20029;-80
2023/12/17 00:24:55;;;;;;;2.78;2.58;;;16.30;65.70;;;;;;4987971;28;20057;-80
2023/12/17 00:27:20;;;;;;;3.03;2.83;;;16.20;65.60;;;;;;4991082;28;20045;-81
2023/12/17 00:29:46;;;;;;;2.50;2.30;;;16.30;65.60;;;;;;5012712;28;20095;-81
2023/12/17 00:32:11;;;;;;;3.00;2.70;;;16.30;65.70;;;;;;4990920;28;20151;-81
2023/12/17 00:34:37;;;;;;;2.53;2.42;;;16.20;65.90;;;;;;5009605;28;20041;-81
2023/12/17 00:37:03;;;;;;;2.35;2.25;;;16.20;65.60;;;;;;5010968;28;20049;-81
2023/12/17 00:39:29;;;;;;;2.72;2.53;;;16.20;65.80;;;;;;5013354;28;20056;-79
2023/12/17 00:41:54;;;;;;;3.15;2.95;;;16.20;65.80;;;;;;5015866;28;20037;-79
2023/12/17 00:44:20;;;;;;;3.38;3.17;;;16.20;65.90;;;;;;4992307;28;20088;-80
2023/12/17 00:46:45;;;;;;;3.15;2.95;;;16.20;65.90;;;;;;5009336;28;20042;-80
2023/12/17 00:49:11;;;;;;;2.70;2.50;;;16.20;65.70;;;;;;4988396;28;20050;-79
2023/12/17 00:51:36;;;;;;;3.05;2.72;;;16.20;65.80;;;;;;4998036;28;20064;-81
2023/12/17 00:54:02;;;;;;;2.85;2.65;;;16.20;65.80;;;;;;4993185;28;20037;-80
2023/12/17 00:56:28;;;;;;;2.95;2.75;;;16.20;65.90;;;;;;5010173;28;20151;-80
2023/12/17 00:58:53;;;;;;;3.00;2.80;;;16.20;65.90;;;;;;4994193;28;20046;-80
2023/12/17 01:01:19;;;;;;;2.78;2.60;;;16.20;65.90;;;;;;4991088;28;20424;-81
2023/12/17 01:03:44;;;;;;;2.40;2.30;;;16.10;65.90;;;;;;4994119;28;20095;-81
2023/12/17 01:06:10;;;;;;;2.85;2.65;;;16.10;65.80;;;;;;4993742;28;20038;-80
2023/12/17 01:08:35;;;;;;;3.10;2.90;;;16.10;66.00;;;;;;4972163;28;20030;-82
2023/12/17 01:11:01;;;;;;;2.63;2.42;;;16.10;66.00;;;;;;5008548;28;20470;-82
2023/12/17 01:13:27;;;;;;;2.65;2.45;;;16.10;66.00;;;;;;4989395;28;20042;-82
2023/12/17 01:15:52;;;;;;;3.17;2.72;;;16.10;66.10;;;;;;4992533;28;20240;-82
2023/12/17 01:18:18;;;;;;;2.65;2.55;;;16.10;66.00;;;;;;4973096;28;20500;-81
2023/12/17 01:20:44;;;;;;;2.63;2.53;;;16.10;66.20;;;;;;4991692;28;20428;-80
2023/12/17 01:23:09;;;;;;;2.97;2.78;;;16.10;66.90;;;;;;4992922;28;20091;-81
2023/12/17 01:25:35;;;;;;;2.75;2.58;;;16.10;66.10;;;;;;4976065;28;20516;-81
2023/12/17 01:28:01;;;;;;;3.17;2.88;;;16.00;66.00;;;;;;4979680;28;20064;-81
2023/12/17 01:30:26;;;;;;;2.50;2.30;;;16.00;66.10;;;;;;4974479;28;20093;-81
2023/12/17 01:32:52;;;;;;;2.58;2.47;;;16.00;66.30;;;;;;4976580;28;20048;-80
2023/12/17 01:35:18;;;;;;;2.67;2.47;;;16.00;66.20;;;;;;4989271;28;20125;-80
2023/12/17 01:37:43;;;;;;;2.55;2.35;;;16.00;67.00;;;;;;4979402;28;20479;-81
2023/12/17 01:40:09;;;;;;;2.33;2.22;;;16.00;66.30;;;;;;4989920;28;20034;-80
2023/12/17 01:42:34;;;;;;;2.72;2.53;;;16.00;66.30;;;;;;4976939;28;20050;-82
2023/12/17 01:45:00;;;;;;;2.33;2.22;;;16.00;66.30;;;;;;5013779;28;20108;-83
2023/12/17 01:47:25;;;;;;;2.38;2.22;;;16.00;66.30;;;;;;4991663;28;20038;-82
2023/12/17 01:49:51;;;;;;;2.50;2.40;;;16.00;66.40;;;;;;4978635;28;20034;-79
2023/12/17 01:52:17;;;;;;;2.60;2.40;;;16.00;66.30;;;;;;4973987;28;20166;-79
2023/12/17 01:54:42;;;;;;;2.20;2.10;;;16.00;66.30;;;;;;4992945;28;20157;-79
2023/12/17 01:57:08;;;;;;;2.83;2.63;;;16.00;66.30;;;;;;4995504;28;20052;-79
2023/12/17 01:59:35;;;;;;;2.70;2.50;;;16.00;66.30;;;;;;4982535;28;20121;-82
2023/12/17 02:02:01;;;;;;;2.35;2.22;;;16.00;66.30;;;;;;4992711;28;20092;-82
2023/12/17 02:04:27;;;;;;;2.90;2.70;;;15.90;66.20;;;;;;5010560;28;20057;-82
2023/12/17 02:06:52;;;;;;;2.33;2.22;;;15.90;66.40;;;;;;4991802;28;20050;-82
2023/12/17 02:09:18;;;;;;;2.80;2.60;;;15.90;66.40;;;;;;5005725;28;20037;-82
2023/12/17 02:11:43;;;;;;;2.65;2.45;;;15.90;66.40;;;;;;4960779;28;20057;-81
2023/12/17 02:14:09;;;;;;;2.78;2.58;;;15.90;66.30;;;;;;4991714;28;20029;-82
2023/12/17 02:16:34;;;;;;;2.33;2.22;;;15.90;66.40;;;;;;4999509;28;20030;-81
2023/12/17 02:19:01;;;;;;;2.30;2.20;;;15.90;66.40;;;;;;4999262;28;20049;-81
2023/12/17 02:21:27;;;;;;;2.83;2.70;;;15.90;67.20;;;;;;4973149;28;20412;-81
2023/12/17 02:23:53;;;;;;;2.38;2.28;;;15.90;66.50;;;;;;4993751;28;20034;-81
2023/12/17 02:26:18;;;;;;;2.28;2.17;;;15.90;66.50;;;;;;4993133;28;20045;-81
2023/12/17 02:28:45;;;;;;;2.40;2.30;;;15.90;66.50;;;;;;4997070;28;20034;-81
2023/12/17 02:31:11;;;;;;;2.60;2.40;;;15.90;66.50;;;;;;4979908;28;20037;-81
2023/12/17 02:33:36;;;;;;;2.53;2.40;;;15.90;66.50;;;;;;4977939;28;20053;-81
2023/12/17 02:36:02;;;;;;;2.38;2.28;;;15.90;66.60;;;;;;4977895;28;20117;-82
2023/12/17 02:38:28;;;;;;;2.50;2.30;;;15.80;66.50;;;;;;4995083;28;20046;-81
2023/12/17 02:40:53;;;;;;;2.30;2.10;;;15.80;66.60;;;;;;4963650;28;20093;-81
2023/12/17 02:43:19;;;;;;;2.10;2.00;;;15.80;66.50;;;;;;4971283;28;20463;-81
2023/12/17 02:45:45;;;;;;;2.05;1.95;;;15.80;66.70;;;;;;4962432;28;20042;-81
2023/12/17 02:48:11;;;;;;;2.20;2.00;;;15.80;66.70;;;;;;5002927;28;20046;-80
2023/12/17 02:50:36;;;;;;;2.28;2.17;;;15.80;66.70;;;;;;5004918;28;20132;-81
2023/12/17 02:53:02;;;;;;;2.03;1.92;;;15.80;66.60;;;;;;4991364;28;20424;-80
2023/12/17 02:55:28;;;;;;;1.90;1.80;;;15.80;66.60;;;;;;4974999;28;20508;-79
2023/12/17 02:57:53;;;;;;;1.90;1.80;;;15.80;66.60;;;;;;5006078;28;20038;-79
2023/12/17 03:00:19;;;;;;;2.20;2.10;;;15.80;66.70;;;;;;4996486;28;20519;-81
2023/12/17 03:02:44;;;;;;;2.22;2.13;;;15.80;66.70;;;;;;4998694;28;20581;-80
2023/12/17 03:05:10;;;;;;;2.17;2.08;;;15.80;66.70;;;;;;5016705;28;20531;-81
2023/12/17 03:07:35;;;;;;;2.00;1.90;;;15.80;66.60;;;;;;5014492;28;20396;-81
2023/12/17 03:10:02;;;;;;;2.10;1.90;;;15.80;66.50;;;;;;5007913;28;20448;-81
2023/12/17 03:12:27;;;;;;;2.30;2.10;;;15.70;67.30;;;;;;4996001;28;20090;-81
2023/12/17 03:14:53;;;;;;;1.90;1.80;;;15.80;66.60;;;;;;4997213;28;20033;-81
2023/12/17 03:17:18;;;;;;;1.83;1.73;;;15.70;66.50;;;;;;4977511;28;20096;-81
2023/12/17 03:19:44;;;;;;;2.00;1.90;;;15.80;66.60;;;;;;5011627;28;20495;-81
2023/12/17 03:22:09;;;;;;;1.92;1.83;;;15.70;66.50;;;;;;4976850;28;20482;-81
2023/12/17 03:24:35;;;;;;;2.10;2.00;;;15.70;66.40;;;;;;4995054;28;20041;-81
2023/12/17 03:27:00;;;;;;;2.10;2.00;;;15.70;66.40;;;;;;5001101;28;20045;-81
2023/12/17 03:29:27;;;;;;;1.83;1.73;;;15.70;67.10;;;;;;4993128;28;20033;-80
2023/12/17 03:31:53;;;;;;;2.20;2.00;;;15.70;66.30;;;;;;4962015;28;20080;-81
2023/12/17 03:34:18;;;;;;;2.00;1.90;;;15.80;66.30;;;;;;4992456;28;20045;-82
2023/12/17 03:36:44;;;;;;;2.22;2.03;;;15.70;66.10;;;;;;5012470;28;20030;-81
2023/12/17 03:39:09;;;;;;;2.22;2.13;;;15.70;66.10;;;;;;4987201;28;20364;-81
2023/12/17 03:41:35;;;;;;;1.90;1.80;;;15.70;66.10;;;;;;5000534;28;20116;-81
2023/12/17 03:44:00;;;;;;;2.95;2.42;;;15.70;66.00;;;;;;4991709;28;20488;-81
2023/12/17 03:46:26;;;;;;;2.47;2.10;;;15.70;66.00;;;;;;4992026;28;20038;-82
2023/12/17 03:48:51;;;;;;;2.30;2.08;;;15.70;65.90;;;;;;5011508;28;20041;-83
2023/12/17 03:51:17;;;;;;;2.05;1.95;;;15.70;66.70;;;;;;5013095;28;20045;-82
2023/12/17 03:53:43;;;;;;;1.88;1.77;;;15.70;65.90;;;;;;4996554;28;20034;-82
2023/12/17 03:56:09;;;;;;;1.95;1.70;;;15.70;65.90;;;;;;4979724;28;20041;-82
2023/12/17 03:58:35;;;;;;;2.20;2.05;;;15.70;65.90;;;;;;5012989;28;20630;-83
2023/12/17 04:01:02;;;;;;;2.00;1.90;;;15.70;65.90;;;;;;4975227;28;20137;-82
2023/12/17 04:03:27;;;;;;;1.98;1.88;;;15.70;65.90;;;;;;5008970;28;20056;-82
2023/12/17 04:05:53;;;;;;;2.15;2.05;;;15.70;65.90;;;;;;5012866;28;20042;-82
2023/12/17 04:08:19;;;;;;;2.33;1.95;;;15.70;65.90;;;;;;4981189;28;20052;-82
2023/12/17 04:10:45;;;;;;;2.03;1.83;;;15.70;65.90;;;;;;4977545;28;20400;-83
2023/12/17 04:13:10;;;;;;;2.08;1.98;;;15.70;66.00;;;;;;4994065;28;20053;-82
2023/12/17 04:15:36;;;;;;;1.98;1.88;;;15.60;65.90;;;;;;5015353;28;20030;-82
2023/12/17 04:18:02;;;;;;;2.00;1.90;;;15.60;65.90;;;;;;4996895;28;20523;-82
2023/12/17 04:20:28;;;;;;;2.22;2.10;;;15.70;65.90;;;;;;4991747;28;20050;-82
2023/12/17 04:22:54;;;;;;;2.50;2.30;;;15.60;65.90;;;;;;4995613;28;20057;-82
2023/12/17 04:25:19;;;;;;;2.10;2.00;;;15.60;65.90;;;;;;4990416;28;20129;-82
2023/12/17 04:27:45;;;;;;;2.00;1.90;;;15.60;65.80;;;;;;4979016;28;20443;-82
2023/12/17 04:30:11;;;;;;;2.08;1.95;;;15.60;65.80;;;;;;5003026;28;20049;-79
2023/12/17 04:32:36;;;;;;;2.22;2.10;;;15.70;65.90;;;;;;4978467;28;20181;-79
2023/12/17 04:35:03;;;;;;;1.83;1.73;;;15.70;65.70;;;;;;4996341;28;20129;-81
2023/12/17 04:37:29;;;;;;;2.40;2.20;;;15.60;65.80;;;;;;4975975;28;20034;-82
2023/12/17 04:39:54;;;;;;;1.88;1.75;;;15.70;65.50;;;;;;5007618;28;20045;-82
2023/12/17 04:42:20;;;;;;;2.28;2.10;;;15.60;65.60;;;;;;5012320;28;20070;-83
2023/12/17 04:44:46;;;;;;;1.80;1.70;;;15.60;65.40;;;;;;4995438;28;20703;-83
2023/12/17 04:47:12;;;;;;;1.95;1.85;;;15.70;65.50;;;;;;4991298;28;20055;-81
2023/12/17 04:49:37;;;;;;;2.03;1.92;;;15.70;65.70;;;;;;4994250;28;20124;-82
2023/12/17 04:52:03;;;;;;;2.47;2.35;;;15.70;66.30;;;;;;5016404;28;20499;-81
2023/12/17 04:54:29;;;;;;;1.80;1.70;;;15.60;65.40;;;;;;5010851;28;20049;-81
2023/12/17 04:56:55;;;;;;;2.10;1.95;;;15.60;65.40;;;;;;4996191;28;20124;-82
2023/12/17 04:59:21;;;;;;;2.85;2.65;;;15.60;66.30;;;;;;4993776;28;20076;-81
2023/12/17 05:01:46;;;;;;;1.98;1.88;;;15.60;66.30;;;;;;5014027;28;20116;-81
2023/12/17 05:04:13;;;;;;;2.30;2.10;;;15.70;65.50;;;;;;4996582;28;20072;-81
2023/12/17 05:06:39;;;;;;;2.03;1.92;;;15.60;65.40;;;;;;4975931;28;20112;-80
2023/12/17 05:09:04;;;;;;;2.30;2.20;;;15.60;65.60;;;;;;4995970;28;20626;-80
2023/12/17 05:11:30;;;;;;;2.10;2.00;;;15.60;65.50;;;;;;4974390;28;20503;-80
2023/12/17 05:13:55;;;;;;;1.73;1.63;;;15.60;66.60;;;;;;4991502;28;20061;-80
2023/12/17 05:16:21;;;;;;;2.10;2.00;;;15.60;66.90;;;;;;4977890;28;20062;-80
2023/12/17 05:18:46;;;;;;;1.67;1.60;;;15.60;67.10;;;;;;4995746;28;20049;-80
2023/12/17 05:21:12;;;;;;;2.40;2.20;;;15.60;67.20;;;;;;5001477;28;20037;-82
2023/12/17 05:23:37;;;;;;;1.90;1.80;;;15.60;67.30;;;;;;4982043;28;20038;-82
2023/12/17 05:26:03;;;;;;;1.85;1.75;;;15.60;67.50;;;;;;5010969;28;20045;-82
2023/12/17 05:28:29;;;;;;;2.10;2.00;;;15.60;67.50;;;;;;4982695;28;20061;-81
2023/12/17 05:30:54;;;;;;;1.70;1.60;;;15.70;67.50;;;;;;4984646;28;20062;-81
2023/12/17 05:33:20;;;;;;;1.95;1.83;;;15.70;67.70;;;;;;4980102;28;20492;-81
2023/12/17 05:35:45;;;;;;;1.90;1.80;;;15.60;67.20;;;;;;4985429;28;20049;-80
2023/12/17 05:38:11;;;;;;;2.03;1.92;;;15.60;67.30;;;;;;5011644;28;20568;-80
2023/12/17 05:40:36;;;;;;;2.10;1.95;;;15.60;67.20;;;;;;4996688;28;20061;-80
2023/12/17 05:43:03;;;;;;;1.98;1.88;;;15.60;67.10;;;;;;4993825;28;20099;-80
2023/12/17 05:45:30;;;;;;;1.92;1.83;;;15.60;67.00;;;;;;5011389;28;20127;-81
2023/12/17 05:47:56;;;;;;;1.60;1.50;;;15.60;67.00;;;;;;4980255;28;20033;-81
2023/12/17 05:50:23;;;;;;;1.60;1.50;;;15.60;66.80;;;;;;4996176;28;20139;-81
2023/12/17 05:52:48;;;;;;;1.70;1.60;;;15.60;66.70;;;;;;5000152;28;20040;-83
2023/12/17 05:55:14;;;;;;;1.48;1.38;;;15.60;66.70;;;;;;4983994;28;20053;-83
2023/12/17 05:57:42;;;;;;;1.67;1.58;;;15.60;66.60;;;;;;5000642;28;20512;-86
2023/12/17 06:00:10;;;;;;;2.00;1.90;;;15.60;66.70;;;;;;4997617;28;20066;-83
2023/12/17 06:02:36;;;;;;;2.25;2.05;;;15.60;66.70;;;;;;4979645;28;20049;-84
2023/12/17 06:05:01;;;;;;;1.77;1.67;;;15.60;66.50;;;;;;5015820;28;20062;-84
2023/12/17 06:07:27;;;;;;;1.73;1.63;;;15.60;66.50;;;;;;4994998;28;20037;-82
2023/12/17 06:09:52;;;;;;;2.70;2.05;;;15.60;66.60;;;;;;4992416;28;20568;-82
2023/12/17 06:12:18;;;;;;;1.75;1.65;;;15.60;66.70;;;;;;4982545;28;20093;-82
2023/12/17 06:14:44;;;;;;;1.60;1.50;;;15.60;66.60;;;;;;4990479;28;20034;-82
2023/12/17 06:17:10;;;;;;;1.60;1.50;;;15.60;66.60;;;;;;5001729;28;20045;-84
2023/12/17 06:19:36;;;;;;;1.80;1.70;;;15.50;66.70;;;;;;4982275;28;20046;-81
2023/12/17 06:22:03;;;;;;;1.60;1.50;;;15.60;66.70;;;;;;5008097;28;20114;-80
2023/12/17 06:24:28;;;;;;;1.63;1.52;;;15.60;66.70;;;;;;4990178;28;20046;-80
2023/12/17 06:26:55;;;;;;;1.95;1.85;;;15.50;66.50;;;;;;4995114;28;20034;-81
2023/12/17 06:29:20;;;;;;;1.67;1.58;;;15.50;66.60;;;;;;4993141;28;20034;-81
2023/12/17 06:31:46;;;;;;;1.60;1.50;;;15.50;66.50;;;;;;4974832;28;20039;-82
2023/12/17 06:34:12;;;;;;;1.70;1.60;;;15.50;66.70;;;;;;4991244;28;20523;-81
2023/12/17 06:36:38;;;;;;;1.75;1.65;;;15.50;66.60;;;;;;4994880;28;20038;-81
2023/12/17 06:39:08;;;;;;;2.00;1.90;;;15.50;66.60;;;;;;4991364;28;20505;-80
2023/12/17 06:41:34;;;;;;;2.08;1.90;;;15.50;66.70;;;;;;4994058;28;20042;-80
2023/12/17 06:43:59;;;;;;;2.83;2.63;;;15.50;66.90;;;;;;4986756;28;20053;-80
2023/12/17 06:46:25;;;;;;;3.00;2.80;;;15.50;67.00;;;;;;5023929;28;20061;-79
2023/12/17 06:48:51;;;;;;;3.03;2.90;;;15.60;67.90;;;;;;4995025;28;20037;-80
2023/12/17 06:51:17;;;;;;;3.20;2.90;;;15.60;67.30;;;;;;4996627;28;20228;-80
2023/12/17 06:53:43;;;;;;;4.40;4.00;;;15.60;67.30;;;;;;4318935;28;10000170;-81
2023/12/17 06:56:09;;;;;;;3.88;3.67;;;15.60;67.20;;;;;;4993346;28;20045;-81
2023/12/17 06:58:35;;;;;;;2.97;2.78;;;15.60;67.90;;;;;;4972105;28;20449;-81
2023/12/17 07:01:01;;;;;;;2.78;2.67;;;15.60;67.90;;;;;;4994217;28;20033;-81
2023/12/17 07:03:26;;;;;;;2.72;2.53;;;15.60;68.00;;;;;;4976515;28;20696;-81
2023/12/17 07:05:52;;;;;;;2.97;2.70;;;15.60;68.80;;;;;;4994618;28;20055;-82
2023/12/17 07:08:17;;;;;;;3.10;2.90;;;15.60;68.00;;;;;;4993938;28;20050;-81
2023/12/17 07:10:44;;;;;;;3.20;2.90;;;15.60;68.00;;;;;;4989641;28;20165;-82
2023/12/17 07:13:09;;;;;;;2.38;2.28;;;15.60;67.80;;;;;;4983435;28;20055;-81
2023/12/17 07:15:35;;;;;;;3.08;2.83;;;15.60;67.90;;;;;;5003800;28;20137;-82
2023/12/17 07:18:01;;;;;;;2.42;2.33;;;15.60;67.80;;;;;;4965591;28;20061;-82
2023/12/17 07:20:26;;;;;;;2.65;2.55;;;15.60;67.80;;;;;;4971320;28;20050;-81
2023/12/17 07:22:52;;;;;;;2.92;2.72;;;15.70;67.90;;;;;;4965278;28;20134;-81
2023/12/17 07:25:19;;;;;;;2.80;2.60;;;15.70;67.80;;;;;;4989563;28;20070;-81
2023/12/17 07:27:44;;;;;;;2.72;2.53;;;15.70;67.80;;;;;;4983457;28;20046;-81
2023/12/17 07:30:11;;;;;;;2.47;2.38;;;15.70;67.60;;;;;;4976856;28;20052;-82
2023/12/17 07:32:37;;;;;;;2.70;2.50;;;15.70;67.50;;;;;;4977316;28;20061;-81
2023/12/17 07:35:06;;;;;;;2.83;2.63;;;15.70;67.50;;;;;;4987921;28;20080;-81
2023/12/17 07:37:32;;;;;;;2.50;2.40;;;15.70;67.40;;;;;;4994571;28;20038;-82
2023/12/17 07:39:57;;;;;;;2.33;2.20;;;15.70;67.40;;;;;;4994782;28;20046;-82
2023/12/17 07:42:23;;;;;;;2.50;2.40;;;15.70;67.30;;;;;;5006982;28;20708;-81
2023/12/17 07:44:49;;;;;;;2.50;2.30;;;15.70;67.30;;;;;;4980132;28;20046;-80
2023/12/17 07:47:15;;;;;;;2.28;2.08;;;15.70;67.30;;;;;;4995148;28;20108;-81
2023/12/17 07:49:41;;;;;;;2.50;2.30;;;15.80;67.50;;;;;;4989590;28;20046;-84
2023/12/17 07:52:07;;;;;;;4.65;2.38;;;15.80;67.10;;;;;;4977618;28;20033;-81
2023/12/17 07:54:32;;;;;;;2.85;2.65;;;15.80;67.00;;;;;;5011332;28;20053;-82
2023/12/17 07:56:58;;;;;;;2.78;2.58;;;15.80;67.00;;;;;;5017326;28;20042;-81
2023/12/17 07:59:25;;;;;;;2.70;2.50;;;15.90;66.80;;;;;;5008327;28;20098;-81
2023/12/17 08:01:51;;;;;;;2.97;2.78;;;15.90;66.80;;;;;;5009808;28;20041;-81
2023/12/17 08:04:17;;;;;;;2.63;2.42;;;15.90;66.90;;;;;;4998078;28;20042;-81
2023/12/17 08:06:43;;;;;;;5.38;2.35;;;16.00;66.60;;;;;;4993590;28;20043;-81
2023/12/17 08:09:10;;;;;;;2.65;2.45;;;16.00;66.40;;;;;;4992928;28;20393;-81
2023/12/17 08:11:36;;;;;;;2.47;2.38;;;16.10;66.40;;;;;;4995898;28;20096;-82
2023/12/17 08:14:02;;;;;;;2.70;2.50;;;16.10;65.90;;;;;;5009995;28;20428;-82
2023/12/17 08:16:28;;;;;;;2.38;2.28;;;16.20;65.90;;;;;;4992141;28;20030;-82
2023/12/17 08:18:53;;;;;;;3.47;2.60;;;16.20;65.80;;;;;;4976310;28;20042;-83
2023/12/17 08:21:19;;;;;;;2.90;2.70;;;16.30;65.50;;;;;;4998007;28;20057;-87
2023/12/17 08:23:45;;;;;;;2.95;2.58;;;16.40;65.60;;;;;;4963806;28;20041;-86
2023/12/17 08:26:11;;;;;;;2.08;1.95;;;16.40;65.60;;;;;;4960616;28;20042;-86
2023/12/17 08:28:36;;;;;;;3.00;2.72;;;16.40;66.40;;;;;;4641928;28;10000037;-84
2023/12/17 08:31:08;;;;;;;2.30;2.10;;;16.40;66.60;;;;;;4992839;28;20045;-84
2023/12/17 08:33:34;;;;;;;2.53;2.33;;;16.40;66.10;;;;;;4971559;28;20052;-84
2023/12/17 08:35:59;;;;;;;2.97;2.45;;;16.50;66.50;;;;;;4986077;28;20064;-84
2023/12/17 08:38:25;;;;;;;2.60;2.40;;;16.50;66.70;;;;;;4987525;28;20076;-86
2023/12/17 08:40:50;;;;;;;2.58;2.38;;;16.50;66.70;;;;;;4987092;28;20041;-84
2023/12/17 08:43:16;;;;;;;2.42;2.22;;;16.50;66.70;;;;;;4971013;28;20096;-83
2023/12/17 08:45:42;;;;;;;3.67;2.40;;;16.60;67.90;;;;;;4985385;28;20064;-85
2023/12/17 08:48:07;;;;;;;2.17;2.08;;;16.70;68.00;;;;;;4988679;28;20057;-85
2023/12/17 08:50:33;;;;;;;2.80;2.50;;;16.70;67.90;;;;;;4971556;28;20052;-84
2023/12/17 08:52:59;;;;;;;2.33;2.03;;;16.80;68.50;;;;;;4989218;28;20042;-86
2023/12/17 08:55:24;;;;;;;2.35;2.17;;;16.80;68.70;;;;;;4984146;28;20423;-84
2023/12/17 08:57:50;;;;;;;2.05;1.95;;;16.80;68.50;;;;;;4974251;28;20534;-85
2023/12/17 09:00:17;;;;;;;2.05;1.95;;;16.80;68.50;;;;;;5005973;28;20411;-82
2023/12/17 09:02:42;;;;;;;2.92;2.35;;;16.90;68.20;;;;;;4971589;28;20196;-84
2023/12/17 09:05:08;;;;;;;2.00;1.90;;;16.90;68.60;;;;;;4987866;28;20540;-82
2023/12/17 09:07:34;;;;;;;1.90;1.80;;;16.90;68.50;;;;;;4968477;28;20077;-79
2023/12/17 09:09:59;;;;;;;2.45;2.22;;;16.90;68.60;;;;;;4994619;28;20045;-81
2023/12/17 09:12:26;;;;;;;2.47;2.28;;;16.90;68.50;;;;;;5003464;28;20056;-80
2023/12/17 09:14:51;;;;;;;2.15;2.05;;;16.90;69.30;;;;;;4990748;28;20408;-80
2023/12/17 09:17:17;;;;;;;2.20;2.10;;;16.90;69.20;;;;;;4985313;28;20045;-81
2023/12/17 09:19:42;;;;;;;2.28;2.17;;;16.90;69.40;;;;;;4970335;28;20046;-81
2023/12/17 09:22:08;;;;;;;2.20;2.10;;;16.90;69.40;;;;;;4954633;28;20177;-80
2023/12/17 09:24:34;;;;;;;1.70;1.60;;;16.90;69.60;;;;;;4984864;28;20048;-80
2023/12/17 09:27:00;;;;;;;2.20;2.00;;;17.00;69.40;;;;;;4987928;28;20539;-81
2023/12/17 09:29:26;;;;;;;2.10;2.00;;;17.00;69.00;;;;;;4972484;28;20057;-81
2023/12/17 09:31:51;;;;;;;2.55;2.35;;;16.90;68.80;;;;;;4976350;28;20037;-82
2023/12/17 09:34:17;;;;;;;2.60;2.40;;;16.90;69.20;;;;;;4985560;28;20034;-82
2023/12/17 09:36:43;;;;;;;2.47;2.25;;;17.00;69.20;;;;;;4975876;28;20053;-81
2023/12/17 09:39:09;;;;;;;1.80;1.70;;;17.00;69.50;;;;;;4984670;28;20037;-79
2023/12/17 09:41:35;;;;;;;1.90;1.80;;;17.00;70.50;;;;;;4969610;28;20410;-82
2023/12/17 09:44:01;;;;;;;1.73;1.63;;;17.00;69.80;;;;;;4988995;28;20047;-82
2023/12/17 09:46:27;;;;;;;2.15;1.95;;;17.00;69.40;;;;;;4970863;28;20042;-82
2023/12/17 09:48:52;;;;;;;3.17;2.00;;;17.00;69.40;;;;;;4976330;28;20041;-82
2023/12/17 09:51:20;;;;;;;1.85;1.63;;;17.00;69.50;;;;;;4986408;28;20511;-82
2023/12/17 09:53:46;;;;;;;1.85;1.70;;;17.10;69.50;;;;;;4999020;28;20050;-83
2023/12/17 09:56:12;;;;;;;1.60;1.50;;;17.10;69.10;;;;;;4981135;28;20519;-82
2023/12/17 09:58:38;;;;;;;1.70;1.60;;;17.10;69.20;;;;;;4981317;28;20065;-83
2023/12/17 10:01:04;;;;;;;2.47;2.10;;;17.10;68.90;;;;;;4982943;28;20043;-83
2023/12/17 10:03:30;;;;;;;1.70;1.60;;;17.10;68.60;;;;;;4983595;28;20097;-82
2023/12/17 10:05:55;;;;;;;1.90;1.80;;;17.20;68.70;;;;;;4967605;28;20131;-83
2023/12/17 10:08:22;;;;;;;1.45;1.35;;;17.20;68.60;;;;;;4973050;28;20096;-83
2023/12/17 10:10:47;;;;;;;1.85;1.75;;;17.20;69.20;;;;;;4987991;28;20056;-84
2023/12/17 10:13:18;;;;;;;1.63;1.52;;;17.30;69.30;;;;;;4995697;28;20050;-82
2023/12/17 10:15:47;;;;;;;1.63;1.52;;;17.30;69.00;;;;;;4973898;28;20546;-85
2023/12/17 10:18:13;;;;;;;1.30;1.20;;;17.40;69.60;;;;;;4973608;28;20389;-85
2023/12/17 10:20:38;;;;;;;1.42;1.33;;;17.40;69.30;;;;;;4975287;28;20049;-84
2023/12/17 10:23:04;;;;;;;1.25;1.25;;;17.40;69.40;;;;;;4974649;28;20170;-85
2023/12/17 10:25:30;;;;;;;1.38;1.27;;;17.50;69.30;;;;;;4990321;28;20482;-83
2023/12/17 10:27:57;;;;;;;1.50;1.40;;;17.40;69.10;;;;;;5010933;28;20045;-81
2023/12/17 10:30:33;;;;;;;1.58;1.48;;;17.50;68.90;;;;;;4975703;28;20057;-81
2023/12/17 10:33:00;;;;;;;1.52;1.42;;;17.50;68.90;;;;;;5005180;28;20515;-85
2023/12/17 10:35:25;;;;;;;1.80;1.27;;;17.50;68.70;;;;;;4990493;28;20046;-85
2023/12/17 10:38:10;;;;;;;1.50;1.40;;;17.40;69.20;;;;;;4991290;28;20508;-87
2023/12/17 10:40:39;;;;;;;1.40;1.30;;;17.50;69.30;;;;;;4990142;28;20050;-89
2023/12/17 10:43:05;;;;;;;1.42;1.02;;;17.40;68.50;;;;;;4994827;28;20049;-86
2023/12/17 10:45:31;;;;;;;1.50;1.40;;;17.40;68.90;;;;;;4985733;28;20064;-88
2023/12/17 10:47:57;;;;;;;1.30;1.30;;;17.40;68.80;;;;;;5014264;28;20073;-85
2023/12/17 10:50:23;;;;;;;1.23;1.20;;;17.40;69.10;;;;;;4999403;28;20053;-81
2023/12/17 10:52:50;;;;;;;1.33;1.23;;;17.40;69.30;;;;;;4975977;28;20053;-83
2023/12/17 10:55:16;;;;;;;1.15;1.10;;;17.40;68.80;;;;;;4977113;28;20160;-82
2023/12/17 10:57:53;;;;;;;1.13;1.13;;;17.30;68.60;;;;;;4979595;28;20103;-83
2023/12/17 11:00:20;;;;;;;1.63;1.50;;;17.40;69.30;;;;;;4996598;28;20133;-83
2023/12/17 11:02:48;;;;;;;1.50;1.40;;;17.40;68.60;;;;;;4992776;28;20041;-82
2023/12/17 11:05:14;;;;;;;1.48;1.38;;;17.40;68.60;;;;;;4972999;28;20052;-83
2023/12/17 11:07:40;;;;;;;1.40;1.30;;;17.30;68.70;;;;;;4970184;28;20420;-80
2023/12/17 11:10:07;;;;;;;1.35;1.20;;;17.30;69.10;;;;;;4981514;28;20050;-80
2023/12/17 11:12:34;;;;;;;1.40;1.30;;;17.40;68.40;;;;;;4996590;28;20042;-81
2023/12/17 11:14:59;;;;;;;1.48;1.38;;;17.40;68.90;;;;;;4964314;28;20053;-82
2023/12/17 11:17:25;;;;;;;1.45;1.35;;;17.30;67.90;;;;;;4981642;28;20042;-82
2023/12/17 11:19:53;;;;;;;1.60;1.50;;;17.30;67.50;;;;;;4985660;28;20133;-82
2023/12/17 11:22:21;;;;;;;1.35;1.27;;;17.30;67.20;;;;;;4987839;28;20050;-81
2023/12/17 11:24:53;;;;;;;1.40;1.40;;;17.20;66.90;;;;;;4985784;28;21143;-84
2023/12/17 11:27:22;;;;;;;1.98;1.88;;;17.30;66.80;;;;;;4957248;28;20042;-82
2023/12/17 11:29:47;;;;;;;1.65;1.55;;;17.30;66.90;;;;;;4985088;28;20117;-82
2023/12/17 11:32:13;;;;;;;1.30;1.30;;;17.20;66.20;;;;;;4989688;28;20038;-81
2023/12/17 11:34:39;;;;;;;1.50;1.50;;;17.20;65.90;;;;;;4971712;28;20129;-82
2023/12/17 11:37:04;;;;;;;1.50;1.40;;;17.20;65.70;;;;;;4970720;28;20118;-80
2023/12/17 11:39:30;;;;;;;1.50;1.40;;;17.20;66.30;;;;;;4983525;28;20402;-79
2023/12/17 11:41:55;;;;;;;1.60;1.50;;;17.20;65.30;;;;;;4983399;28;20092;-80
2023/12/17 11:44:22;;;;;;;1.70;1.60;;;17.20;65.10;;;;;;4965459;28;20058;-80
2023/12/17 11:46:48;;;;;;;1.80;1.70;;;17.20;65.10;;;;;;4982111;28;20337;-80
2023/12/17 11:49:23;;;;;;;1.30;1.30;;;17.20;65.30;;;;;;4971974;28;20047;-80
2023/12/17 11:51:50;;;;;;;2.20;2.10;;;17.20;64.50;;;;;;4987504;28;20041;-79
2023/12/17 11:54:20;;;;;;;2.50;2.10;;;17.30;64.90;;;;;;4994176;28;20065;-83
2023/12/17 11:56:47;;;;;;;4.40;2.38;;;17.30;64.90;;;;;;4993430;28;20050;-80
2023/12/17 11:59:12;;;;;;;2.75;2.65;;;17.40;64.80;;;;;;4985423;28;20119;-80
2023/12/17 12:01:38;;;;;;;3.05;2.85;;;17.40;64.70;;;;;;4992143;28;20472;-82
2023/12/17 12:04:04;;;;;;;2.42;2.33;;;17.40;64.80;;;;;;4990799;28;20034;-82
2023/12/17 12:06:29;;;;;;;3.10;2.90;;;17.50;65.10;;;;;;4992073;28;20558;-82
2023/12/17 12:08:55;;;;;;;3.05;2.85;;;17.50;64.80;;;;;;4985742;28;20051;-83
2023/12/17 12:11:29;;;;;;;3.13;2.92;;;17.40;64.70;;;;;;4930829;28;20062;-82
2023/12/17 12:13:55;;;;;;;2.58;2.47;;;17.40;64.90;;;;;;4974085;28;20050;-82
2023/12/17 12:16:20;;;;;;;3.03;2.83;;;17.40;65.00;;;;;;4988342;28;20030;-83
2023/12/17 12:18:46;;;;;;;3.10;2.90;;;17.40;65.00;;;;;;4982659;28;20586;-82
2023/12/17 12:21:18;;;;;;;2.83;2.65;;;17.40;65.20;;;;;;5008007;28;20046;-81
2023/12/17 12:23:51;;;;;;;2.47;2.38;;;17.40;65.20;;;;;;4973459;28;20049;-81
2023/12/17 12:26:18;;;;;;;3.03;2.83;;;17.40;65.20;;;;;;4982602;28;20056;-81
2023/12/17 12:28:50;;;;;;;2.60;2.50;;;17.30;65.30;;;;;;4967319;28;20099;-81
2023/12/17 12:31:15;;;;;;;2.75;2.55;;;17.40;65.20;;;;;;4970767;28;20164;-81
2023/12/17 12:33:42;;;;;;;2.78;2.63;;;17.40;65.40;;;;;;4979020;28;20185;-80
2023/12/17 12:36:10;;;;;;;4.57;2.35;;;17.40;65.30;;;;;;4978667;28;20057;-80
2023/12/17 12:38:35;;;;;;;2.08;1.98;;;17.40;65.50;;;;;;4633541;28;10000217;-81